Time;durP1;ratioP1;P1;durP2;ratioP2;P2;SDS_P1;SDS_P2;PMS_P1;PMS_P2;Temp;Humidity;BMP_temperature;BMP_pressure;BME280_temperature;BME280_humidity;BME280_pressure;Samples;Min_cycle;Max_cycle;Signal;HPM_P1;HPM_P2
2022/06/09 00:01:46;;;;;;;7.30;5.00;;;14.80;99.90;;;;;;5071528;28;20645;-42
2022/06/09 00:04:18;;;;;;;7.50;5.63;;;14.80;99.90;;;;;;5071569;28;20932;-40
2022/06/09 00:07:05;;;;;;;8.43;5.13;;;14.80;99.90;;;;;;5071033;28;20419;-41
2022/06/09 00:09:47;;;;;;;7.20;4.50;;;14.80;99.90;;;;;;5071316;28;20461;-40
2022/06/09 00:12:13;;;;;;;6.13;4.50;;;14.80;99.90;;;;;;5058005;28;20790;-40
2022/06/09 00:14:39;;;;;;;6.80;4.33;;;14.90;99.90;;;;;;5071395;28;20453;-42
2022/06/09 00:17:05;;;;;;;8.00;3.83;;;14.90;99.90;;;;;;5069405;28;20439;-40
2022/06/09 00:19:31;;;;;;;11.00;4.47;;;14.90;99.90;;;;;;5070239;28;20423;-39
2022/06/09 00:21:57;;;;;;;11.67;4.97;;;14.80;99.90;;;;;;5058924;28;20427;-41
2022/06/09 00:24:23;;;;;;;7.43;4.43;;;14.70;99.90;;;;;;5071156;28;20837;-40
2022/06/09 00:26:49;;;;;;;6.57;4.40;;;14.70;99.90;;;;;;5070471;28;20696;-40
2022/06/09 00:29:14;;;;;;;8.33;4.00;;;14.60;99.90;;;;;;5071151;28;20204;-40
2022/06/09 00:31:40;;;;;;;5.30;4.00;;;14.60;99.90;;;;;;5070931;28;20296;-41
2022/06/09 00:34:06;;;;;;;13.70;5.60;;;14.60;99.90;;;;;;5069764;28;20574;-40
2022/06/09 00:36:32;;;;;;;7.67;4.20;;;14.50;99.90;;;;;;5070395;28;20652;-41
2022/06/09 00:38:58;;;;;;;8.20;4.13;;;14.40;99.90;;;;;;5070493;28;20191;-40
2022/06/09 00:41:25;;;;;;;7.07;4.47;;;14.40;99.90;;;;;;5070772;28;20813;-40
2022/06/09 00:43:51;;;;;;;6.60;4.03;;;14.40;99.90;;;;;;5070445;28;20658;-40
2022/06/09 00:46:24;;;;;;;7.73;3.87;;;14.30;99.90;;;;;;5070779;28;20456;-43
2022/06/09 00:49:10;;;;;;;5.63;3.80;;;14.30;99.90;;;;;;5069952;28;20481;-42
2022/06/09 00:51:44;;;;;;;5.67;3.37;;;14.40;99.90;;;;;;5047116;28;20554;-40
2022/06/09 00:54:42;;;;;;;9.63;3.90;;;14.40;99.90;;;;;;5068376;28;20785;-41
2022/06/09 00:57:18;;;;;;;9.23;3.30;;;14.50;99.90;;;;;;5069720;28;20439;-40
2022/06/09 00:59:48;;;;;;;6.20;3.37;;;14.50;99.90;;;;;;5068850;28;20472;-40
2022/06/09 01:02:17;;;;;;;5.73;3.90;;;14.60;99.90;;;;;;5070561;28;20435;-41
2022/06/09 01:04:44;;;;;;;4.17;3.20;;;14.60;99.90;;;;;;5070426;28;20821;-41
2022/06/09 01:07:14;;;;;;;8.13;3.53;;;14.60;99.90;;;;;;5069669;28;20427;-41
2022/06/09 01:09:40;;;;;;;6.23;3.53;;;14.70;99.90;;;;;;5070274;28;20906;-42
2022/06/09 01:12:30;;;;;;;7.03;3.10;;;14.60;99.90;;;;;;5056382;28;20459;-40
2022/06/09 01:14:59;;;;;;;6.50;3.00;;;14.50;99.90;;;;;;5070164;28;20454;-41
2022/06/09 01:17:59;;;;;;;7.90;3.23;;;14.60;99.90;;;;;;5069636;28;20420;-40
2022/06/09 01:20:41;;;;;;;9.90;3.33;;;14.70;99.90;;;;;;5066313;28;21238;-40
2022/06/09 01:23:33;;;;;;;9.93;3.43;;;14.70;99.90;;;;;;5063577;28;20411;-40
2022/06/09 01:26:27;;;;;;;5.37;3.03;;;14.70;99.90;;;;;;5070297;28;20761;-43
2022/06/09 01:29:02;;;;;;;6.23;2.77;;;14.70;99.90;;;;;;5069243;28;20507;-41
2022/06/09 01:32:00;;;;;;;6.50;3.40;;;14.60;99.90;;;;;;5068651;28;20468;-42
2022/06/09 01:34:31;;;;;;;6.67;3.33;;;14.60;99.90;;;;;;5070015;28;20836;-42
2022/06/09 01:37:19;;;;;;;6.20;3.30;;;14.70;99.90;;;;;;5069383;28;20944;-40
2022/06/09 01:39:49;;;;;;;6.47;3.00;;;14.60;99.90;;;;;;5069793;28;20538;-41
2022/06/09 01:42:37;;;;;;;7.87;2.83;;;14.60;99.90;;;;;;5070038;28;20423;-40
2022/06/09 01:45:14;;;;;;;12.80;2.80;;;14.50;99.90;;;;;;5069855;28;20420;-40
2022/06/09 01:48:04;;;;;;;4.37;2.57;;;14.50;99.90;;;;;;5069193;28;20809;-40
2022/06/09 01:50:36;;;;;;;10.10;3.73;;;14.50;99.90;;;;;;5069760;28;20434;-40
2022/06/09 01:53:08;;;;;;;9.43;3.10;;;14.60;99.90;;;;;;5069967;28;20438;-40
2022/06/09 01:55:38;;;;;;;6.37;3.10;;;14.60;99.90;;;;;;5072104;28;20447;-40
2022/06/09 01:58:07;;;;;;;7.90;2.90;;;14.70;99.90;;;;;;5073146;28;20424;-40
2022/06/09 02:00:33;;;;;;;7.97;3.63;;;14.70;99.90;;;;;;5073777;28;20505;-41
2022/06/09 02:03:14;;;;;;;7.93;2.53;;;14.60;99.90;;;;;;5073856;28;20415;-40
2022/06/09 02:05:48;;;;;;;9.07;2.73;;;14.70;99.90;;;;;;5073783;28;20434;-40
2022/06/09 02:08:17;;;;;;;7.30;2.43;;;14.70;99.90;;;;;;5073068;28;20445;-40
2022/06/09 02:10:51;;;;;;;11.97;3.53;;;14.70;99.90;;;;;;5068229;28;20930;-40
2022/06/09 02:13:24;;;;;;;8.67;2.93;;;14.70;99.90;;;;;;5066711;28;20500;-40
2022/06/09 02:15:56;;;;;;;9.03;2.97;;;14.70;99.90;;;;;;5073670;28;20502;-39
2022/06/09 02:18:23;;;;;;;5.43;2.90;;;14.70;99.90;;;;;;5072760;28;20998;-41
2022/06/09 02:21:00;;;;;;;6.90;3.03;;;14.60;99.90;;;;;;5066216;28;20418;-40
2022/06/09 02:23:26;;;;;;;6.90;3.10;;;14.60;99.90;;;;;;5070116;28;20940;-40
2022/06/09 02:25:52;;;;;;;9.37;3.53;;;14.60;99.90;;;;;;5073498;28;20459;-41
2022/06/09 02:28:18;;;;;;;7.57;4.17;;;14.50;99.90;;;;;;5072713;28;20284;-41
2022/06/09 02:30:44;;;;;;;5.37;2.90;;;14.50;99.90;;;;;;5073254;28;20207;-40
2022/06/09 02:33:10;;;;;;;8.03;3.20;;;14.50;99.90;;;;;;5073214;28;20922;-41
2022/06/09 02:35:37;;;;;;;8.63;3.70;;;14.50;99.90;;;;;;5073122;28;20431;-40
2022/06/09 02:38:03;;;;;;;6.67;4.20;;;14.50;99.90;;;;;;5072379;28;20510;-46
2022/06/09 02:40:31;;;;;;;7.10;3.40;;;14.50;99.90;;;;;;5073318;28;20496;-40
2022/06/09 02:42:57;;;;;;;10.80;4.00;;;14.50;99.90;;;;;;5073052;28;20446;-41
2022/06/09 02:45:23;;;;;;;8.30;3.60;;;14.50;99.90;;;;;;5073181;28;20427;-39
2022/06/09 02:47:50;;;;;;;8.80;3.87;;;14.40;99.90;;;;;;5072257;28;20415;-40
2022/06/09 02:50:16;;;;;;;7.43;3.60;;;14.40;99.90;;;;;;5073031;28;20922;-40
2022/06/09 02:52:42;;;;;;;7.00;3.67;;;14.40;99.90;;;;;;5071682;28;20544;-41
2022/06/09 02:55:10;;;;;;;10.77;3.90;;;14.40;99.90;;;;;;5071905;28;20897;-40
2022/06/09 02:57:36;;;;;;;6.53;4.23;;;14.30;99.90;;;;;;5072159;28;20432;-40
2022/06/09 03:00:05;;;;;;;8.57;4.30;;;14.40;99.90;;;;;;5072722;28;20772;-41
2022/06/09 03:02:31;;;;;;;8.30;3.97;;;14.50;99.90;;;;;;5072367;28;21121;-41
2022/06/09 03:04:58;;;;;;;10.17;5.13;;;14.60;99.90;;;;;;5072240;28;20450;-41
2022/06/09 03:07:24;;;;;;;8.20;4.30;;;14.50;99.90;;;;;;5070717;28;20757;-40
2022/06/09 03:09:51;;;;;;;10.47;5.50;;;14.50;99.90;;;;;;5072772;28;20934;-40
2022/06/09 03:12:17;;;;;;;15.30;6.00;;;14.40;99.90;;;;;;5058878;28;20471;-40
2022/06/09 03:14:43;;;;;;;9.80;5.20;;;14.40;99.90;;;;;;5072615;28;20443;-42
2022/06/09 03:17:09;;;;;;;12.53;5.63;;;14.40;99.90;;;;;;5071533;28;20489;-40
2022/06/09 03:19:36;;;;;;;12.17;5.27;;;14.30;99.90;;;;;;5072446;28;20435;-40
2022/06/09 03:22:02;;;;;;;12.60;5.50;;;14.30;99.90;;;;;;5059832;28;20268;-40
2022/06/09 03:24:27;;;;;;;16.70;7.40;;;14.30;99.90;;;;;;5071131;28;20534;-40
2022/06/09 03:26:53;;;;;;;13.20;7.17;;;14.30;99.90;;;;;;5071850;28;20419;-40
2022/06/09 03:29:20;;;;;;;14.60;7.00;;;14.40;99.90;;;;;;5072278;28;20727;-40
2022/06/09 03:31:46;;;;;;;14.20;6.70;;;14.40;99.90;;;;;;5071838;28;20561;-42
2022/06/09 03:34:13;;;;;;;17.97;7.43;;;14.40;99.90;;;;;;5070868;28;20435;-39
2022/06/09 03:36:39;;;;;;;13.20;6.33;;;14.30;99.90;;;;;;5071648;28;20423;-40
2022/06/09 03:39:05;;;;;;;10.90;6.70;;;14.20;99.90;;;;;;5071789;28;20513;-40
2022/06/09 03:41:30;;;;;;;14.77;6.83;;;14.20;99.90;;;;;;5072198;28;20197;-41
2022/06/09 03:43:56;;;;;;;14.50;6.50;;;14.20;99.90;;;;;;5071891;28;20185;-40
2022/06/09 03:46:22;;;;;;;10.77;6.60;;;14.20;99.90;;;;;;5071857;28;20215;-40
2022/06/09 03:48:48;;;;;;;10.90;6.60;;;14.20;99.90;;;;;;5071202;28;20583;-42
2022/06/09 03:51:13;;;;;;;13.50;7.63;;;14.00;99.90;;;;;;5071814;28;20204;-40
2022/06/09 03:53:40;;;;;;;14.93;8.00;;;14.00;99.90;;;;;;5070845;28;20189;-40
2022/06/09 03:56:17;;;;;;;15.73;6.80;;;14.00;99.90;;;;;;5071667;28;20213;-40
2022/06/09 03:58:44;;;;;;;13.67;8.00;;;14.00;99.90;;;;;;5070809;28;20471;-40
2022/06/09 04:01:17;;;;;;;19.63;7.80;;;14.10;99.90;;;;;;5071532;28;20763;-39
2022/06/09 04:03:43;;;;;;;15.80;8.30;;;14.10;99.90;;;;;;5071419;28;20431;-40
2022/06/09 04:06:14;;;;;;;19.10;8.80;;;14.20;99.90;;;;;;5071702;28;20420;-42
2022/06/09 04:08:40;;;;;;;14.43;8.00;;;14.10;99.90;;;;;;5070859;28;20458;-41
2022/06/09 04:11:06;;;;;;;13.57;8.03;;;14.10;99.90;;;;;;5063044;28;20958;-42
2022/06/09 04:13:31;;;;;;;16.87;7.93;;;14.20;99.90;;;;;;5066164;28;20191;-40
2022/06/09 04:15:57;;;;;;;14.33;8.10;;;14.30;99.90;;;;;;5071347;28;20227;-39
2022/06/09 04:18:23;;;;;;;17.23;8.50;;;14.20;99.90;;;;;;5069848;28;20197;-39
2022/06/09 04:20:48;;;;;;;13.70;8.40;;;14.20;99.90;;;;;;5064423;28;20189;-40
2022/06/09 04:23:14;;;;;;;13.23;7.83;;;14.20;99.90;;;;;;5064543;28;20200;-40
2022/06/09 04:25:40;;;;;;;15.00;9.20;;;14.30;99.90;;;;;;5071174;28;20693;-40
2022/06/09 04:28:05;;;;;;;13.80;8.30;;;14.40;99.90;;;;;;5070250;28;20211;-40
2022/06/09 04:30:31;;;;;;;13.73;8.87;;;14.30;99.90;;;;;;5071058;28;20272;-39
2022/06/09 04:32:57;;;;;;;15.53;9.47;;;14.30;99.90;;;;;;5071166;28;20250;-40
2022/06/09 04:35:24;;;;;;;14.63;9.50;;;14.30;99.90;;;;;;5070861;28;20193;-40
2022/06/09 04:38:01;;;;;;;19.43;10.37;;;14.40;99.90;;;;;;5070261;28;20212;-41
2022/06/09 04:40:34;;;;;;;14.50;10.10;;;14.30;99.90;;;;;;5070548;28;20921;-42
2022/06/09 04:43:00;;;;;;;21.93;11.03;;;14.30;99.90;;;;;;5051607;28;20443;-42
2022/06/09 04:45:27;;;;;;;20.40;11.47;;;14.30;99.90;;;;;;5061053;28;20453;-43
2022/06/09 04:47:52;;;;;;;20.37;12.87;;;14.30;99.90;;;;;;5046633;28;20447;-39
2022/06/09 04:50:18;;;;;;;27.40;14.00;;;14.20;99.90;;;;;;5049748;28;20436;-39
2022/06/09 04:52:46;;;;;;;17.10;12.37;;;14.20;99.90;;;;;;5066020;28;20251;-41
2022/06/09 04:55:12;;;;;;;18.47;12.00;;;14.10;99.90;;;;;;5064493;28;20647;-41
2022/06/09 04:57:38;;;;;;;27.53;15.73;;;14.20;99.90;;;;;;5049779;28;20518;-40
2022/06/09 05:00:05;;;;;;;21.63;15.33;;;14.30;99.90;;;;;;5066003;28;20538;-42
2022/06/09 05:02:32;;;;;;;22.03;14.40;;;14.30;99.90;;;;;;5065556;28;20271;-42
2022/06/09 05:04:58;;;;;;;21.70;14.33;;;14.30;99.90;;;;;;5061911;28;20427;-42
2022/06/09 05:07:23;;;;;;;25.97;15.80;;;14.30;99.90;;;;;;5069667;28;20438;-40
2022/06/09 05:09:49;;;;;;;20.63;15.30;;;14.30;99.90;;;;;;5070378;28;20533;-40
2022/06/09 05:12:15;;;;;;;24.03;15.90;;;14.20;99.90;;;;;;5056531;28;20478;-41
2022/06/09 05:14:41;;;;;;;28.80;16.47;;;14.20;99.90;;;;;;5070381;28;20185;-40
2022/06/09 05:17:07;;;;;;;29.97;16.67;;;14.20;99.90;;;;;;5069713;28;20420;-41
2022/06/09 05:19:33;;;;;;;26.20;16.20;;;14.10;99.90;;;;;;5069002;28;20862;-41
2022/06/09 05:21:58;;;;;;;22.90;15.57;;;14.00;99.90;;;;;;5057984;28;20423;-40
2022/06/09 05:24:25;;;;;;;20.53;15.57;;;14.00;99.90;;;;;;5070293;28;20438;-40
2022/06/09 05:26:50;;;;;;;20.43;15.03;;;14.00;99.90;;;;;;5069449;28;20193;-41
2022/06/09 05:29:16;;;;;;;28.50;16.10;;;13.90;99.90;;;;;;5069926;28;20929;-41
2022/06/09 05:31:43;;;;;;;26.83;15.20;;;14.00;99.90;;;;;;5068627;28;20208;-40
2022/06/09 05:34:10;;;;;;;22.80;15.30;;;14.10;99.90;;;;;;5070074;28;20411;-41
2022/06/09 05:36:36;;;;;;;22.20;15.97;;;14.10;99.90;;;;;;5068129;28;20481;-41
2022/06/09 05:47:19;;;;;;;24.87;15.80;;;14.30;99.90;;;;;;5060539;28;20435;-43
2022/06/09 05:49:47;;;;;;;25.90;17.37;;;14.20;99.90;;;;;;5070039;28;20470;-41
2022/06/09 05:52:13;;;;;;;29.70;15.43;;;14.30;99.90;;;;;;5050111;28;21019;-43
2022/06/09 05:54:39;;;;;;;23.50;17.43;;;14.40;99.90;;;;;;5051492;28;20428;-41
2022/06/09 05:57:05;;;;;;;23.53;17.30;;;14.50;99.90;;;;;;5061556;28;20485;-43
2022/06/09 05:59:31;;;;;;;27.23;17.70;;;14.50;99.90;;;;;;5069389;28;20459;-42
2022/06/09 06:01:56;;;;;;;23.57;16.33;;;14.60;99.90;;;;;;5054166;28;20205;-42
2022/06/09 06:04:22;;;;;;;25.17;16.40;;;14.70;99.90;;;;;;5067279;28;20231;-43
2022/06/09 06:06:48;;;;;;;23.10;16.90;;;14.70;99.90;;;;;;5069250;28;20214;-42
2022/06/09 06:09:17;;;;;;;23.93;16.77;;;14.80;99.90;;;;;;5063061;28;20603;-43
2022/06/09 06:11:44;;;;;;;22.03;17.70;;;14.80;99.90;;;;;;5047194;28;20243;-40
2022/06/09 06:14:10;;;;;;;30.37;17.40;;;14.80;99.90;;;;;;5057134;28;20426;-40
2022/06/09 06:16:37;;;;;;;22.80;17.60;;;14.70;99.90;;;;;;5063460;28;20434;-40
2022/06/09 06:19:04;;;;;;;24.87;19.13;;;14.80;99.90;;;;;;5068542;28;20427;-44
2022/06/09 06:21:30;;;;;;;20.30;16.17;;;14.80;99.90;;;;;;5057530;28;20494;-39
2022/06/09 06:23:55;;;;;;;28.40;17.50;;;14.80;99.90;;;;;;5069479;28;20455;-40
2022/06/09 06:26:21;;;;;;;22.27;19.13;;;14.90;99.90;;;;;;5069558;28;20193;-40
2022/06/09 06:28:47;;;;;;;26.33;17.00;;;14.90;99.90;;;;;;5053928;28;20198;-40
2022/06/09 06:31:13;;;;;;;20.10;17.20;;;14.90;99.90;;;;;;5049010;28;20978;-41
2022/06/09 06:33:39;;;;;;;27.20;17.50;;;14.90;99.90;;;;;;5048999;28;20259;-42
2022/06/09 06:36:05;;;;;;;27.13;17.97;;;15.00;99.90;;;;;;5048841;28;20513;-42
2022/06/09 06:38:31;;;;;;;19.50;16.70;;;15.10;99.90;;;;;;5047860;28;20185;-40
2022/06/09 06:40:57;;;;;;;21.77;16.70;;;15.10;99.90;;;;;;5051217;28;20428;-35
2022/06/09 06:43:23;;;;;;;26.73;19.37;;;15.10;99.90;;;;;;5053254;28;20505;-35
2022/06/09 06:45:49;;;;;;;23.43;17.10;;;15.10;99.90;;;;;;5052927;28;20201;-35
2022/06/09 06:48:15;;;;;;;22.87;16.67;;;15.10;99.90;;;;;;5052084;28;20412;-35
2022/06/09 06:50:41;;;;;;;22.83;19.20;;;15.10;99.90;;;;;;5056526;28;20269;-35
2022/06/09 06:53:07;;;;;;;30.53;18.73;;;15.20;99.90;;;;;;5060479;28;20181;-35
2022/06/09 06:55:32;;;;;;;28.07;18.67;;;15.10;99.90;;;;;;5064169;28;20442;-35
2022/06/09 06:57:58;;;;;;;25.67;18.97;;;15.00;99.90;;;;;;5052180;28;20664;-35
2022/06/09 07:00:24;;;;;;;26.37;19.40;;;15.10;99.90;;;;;;5066971;28;20240;-35
2022/06/09 07:02:51;;;;;;;25.57;19.43;;;15.10;99.90;;;;;;5073005;28;20592;-35
2022/06/09 07:05:20;;;;;;;35.60;21.70;;;15.10;99.90;;;;;;5060885;28;20470;-35
2022/06/09 07:07:46;;;;;;;24.33;18.50;;;15.10;99.90;;;;;;5051752;28;20424;-35
2022/06/09 07:10:13;;;;;;;29.90;19.50;;;15.20;99.90;;;;;;5052266;28;20901;-35
2022/06/09 07:12:39;;;;;;;28.20;20.57;;;15.20;99.90;;;;;;5052077;28;20197;-35
2022/06/09 07:15:07;;;;;;;28.20;21.30;;;15.30;99.90;;;;;;5053830;28;20460;-35
2022/06/09 07:17:32;;;;;;;25.60;19.50;;;15.20;99.90;;;;;;5072106;28;20415;-36
2022/06/09 07:19:58;;;;;;;20.40;17.80;;;15.20;99.90;;;;;;5071112;28;20411;-35
2022/06/09 07:22:24;;;;;;;31.23;20.30;;;15.30;99.90;;;;;;5060433;28;20231;-35
2022/06/09 07:24:50;;;;;;;29.30;20.20;;;15.30;99.90;;;;;;5071193;28;20273;-35
2022/06/09 07:27:16;;;;;;;35.37;21.83;;;15.30;99.90;;;;;;5057630;28;20457;-35
2022/06/09 07:29:42;;;;;;;28.07;20.53;;;15.20;99.90;;;;;;5051866;28;20425;-35
2022/06/09 07:32:09;;;;;;;27.07;21.47;;;15.30;99.90;;;;;;5052664;28;20456;-35
2022/06/09 07:34:35;;;;;;;27.43;20.40;;;15.40;99.90;;;;;;5066740;28;20423;-35
2022/06/09 07:37:00;;;;;;;24.00;20.67;;;15.40;99.90;;;;;;5067440;28;20861;-35
2022/06/09 07:39:26;;;;;;;32.43;20.10;;;15.50;99.90;;;;;;5051876;28;20503;-35
2022/06/09 07:41:52;;;;;;;30.00;21.20;;;15.60;99.90;;;;;;5071833;28;20923;-35
2022/06/09 07:44:18;;;;;;;28.20;21.93;;;15.60;99.90;;;;;;5072109;28;20196;-35
2022/06/09 07:46:44;;;;;;;28.53;21.47;;;15.60;99.90;;;;;;5071341;28;20185;-35
2022/06/09 07:49:10;;;;;;;27.57;20.83;;;15.60;99.90;;;;;;5071892;28;20431;-35
2022/06/09 07:51:37;;;;;;;28.53;21.03;;;15.40;99.90;;;;;;5064747;28;20460;-35
2022/06/09 07:54:04;;;;;;;28.47;21.17;;;15.50;99.90;;;;;;5050752;28;20439;-35
2022/06/09 07:56:32;;;;;;;35.03;22.93;;;15.40;99.90;;;;;;5057708;28;20481;-35
2022/06/09 07:59:02;;;;;;;30.73;21.50;;;15.50;99.90;;;;;;5071465;28;20907;-35
2022/06/09 08:01:29;;;;;;;30.70;20.13;;;15.70;99.90;;;;;;5072014;28;20840;-35
2022/06/09 08:03:55;;;;;;;33.10;21.77;;;15.80;99.90;;;;;;5071511;28;20797;-35
2022/06/09 08:06:22;;;;;;;31.80;23.00;;;15.90;99.90;;;;;;5071600;28;20455;-35
2022/06/09 08:08:49;;;;;;;30.40;22.43;;;15.80;99.90;;;;;;5070611;28;20854;-35
2022/06/09 08:11:15;;;;;;;28.47;21.90;;;15.70;99.90;;;;;;5062024;28;20464;-35
2022/06/09 08:13:41;;;;;;;26.10;21.27;;;15.60;99.90;;;;;;5067318;28;20430;-36
2022/06/09 08:16:07;;;;;;;26.47;21.13;;;15.60;99.90;;;;;;5071405;28;20177;-35
2022/06/09 08:18:33;;;;;;;32.30;23.00;;;15.60;99.90;;;;;;5070585;28;20458;-35
2022/06/09 08:20:59;;;;;;;24.90;21.70;;;15.50;99.90;;;;;;5062903;28;20503;-35
2022/06/09 08:23:26;;;;;;;23.90;19.43;;;15.50;99.90;;;;;;5066739;28;20678;-35
2022/06/09 08:25:54;;;;;;;26.47;20.10;;;15.50;99.90;;;;;;5071250;28;20540;-35
2022/06/09 08:28:21;;;;;;;28.53;20.27;;;15.60;99.90;;;;;;5070452;28;20788;-35
2022/06/09 08:30:51;;;;;;;23.57;21.00;;;15.60;99.90;;;;;;5071101;28;20502;-35
2022/06/09 08:33:17;;;;;;;26.73;19.73;;;15.60;99.90;;;;;;5070843;28;20480;-35
2022/06/09 08:35:44;;;;;;;21.17;18.90;;;15.70;99.90;;;;;;5070954;28;20478;-36
2022/06/09 08:38:10;;;;;;;31.47;20.43;;;15.70;99.90;;;;;;5069969;28;20561;-35
2022/06/09 08:40:55;;;;;;;22.07;18.30;;;15.80;99.90;;;;;;5070896;28;20413;-35
2022/06/09 08:43:39;;;;;;;24.03;19.57;;;15.90;99.90;;;;;;5070865;28;20408;-35
2022/06/09 08:46:38;;;;;;;24.00;19.10;;;16.00;99.90;;;;;;5070799;28;20420;-35
2022/06/09 08:49:14;;;;;;;21.53;19.33;;;16.10;99.90;;;;;;5070475;28;20882;-35
2022/06/09 08:51:43;;;;;;;26.57;22.17;;;16.30;99.90;;;;;;5046917;28;20809;-35
2022/06/09 08:54:19;;;;;;;25.10;22.50;;;16.40;99.90;;;;;;5068938;28;20472;-35
2022/06/09 08:56:47;;;;;;;32.17;25.00;;;16.60;99.90;;;;;;5069862;28;21213;-35
2022/06/09 08:59:16;;;;;;;31.37;24.63;;;16.80;99.90;;;;;;5070459;28;20423;-36
2022/06/09 09:01:47;;;;;;;26.03;23.23;;;17.00;99.90;;;;;;5070533;28;20431;-35
2022/06/09 09:04:21;;;;;;;29.20;23.27;;;17.10;99.90;;;;;;5069867;28;20778;-35
2022/06/09 09:06:58;;;;;;;29.57;23.70;;;17.20;99.90;;;;;;5069910;28;20420;-35
2022/06/09 09:09:30;;;;;;;26.10;22.37;;;17.20;99.90;;;;;;5070385;28;20473;-35
2022/06/09 09:12:34;;;;;;;24.83;22.20;;;17.20;99.90;;;;;;5053770;28;20469;-35
2022/06/09 09:15:18;;;;;;;25.83;22.83;;;17.30;99.90;;;;;;5070171;28;20411;-35
2022/06/09 09:18:08;;;;;;;26.03;22.67;;;17.30;99.90;;;;;;5068289;28;20411;-35
2022/06/09 09:21:12;;;;;;;25.07;22.53;;;17.40;99.90;;;;;;5065044;28;20420;-35
2022/06/09 09:23:51;;;;;;;30.40;23.03;;;17.40;99.90;;;;;;5067821;28;20411;-36
2022/06/09 09:26:29;;;;;;;26.40;22.23;;;17.50;99.90;;;;;;5070091;28;20444;-35
2022/06/09 09:29:24;;;;;;;26.83;22.03;;;17.50;99.90;;;;;;5069629;28;20419;-35
2022/06/09 09:31:55;;;;;;;25.43;21.40;;;17.60;99.90;;;;;;5069324;28;20474;-36
2022/06/09 09:34:24;;;;;;;25.10;21.07;;;17.80;99.90;;;;;;5069902;28;20494;-35
2022/06/09 09:36:55;;;;;;;22.10;19.73;;;17.90;99.90;;;;;;5069356;28;20783;-35
2022/06/09 09:39:30;;;;;;;22.17;19.97;;;18.10;99.90;;;;;;5069996;28;20434;-35
2022/06/09 09:42:08;;;;;;;22.80;20.33;;;18.30;99.90;;;;;;5068640;28;20509;-35
2022/06/09 09:44:34;;;;;;;22.63;18.87;;;18.40;99.90;;;;;;5069722;28;20437;-35
2022/06/09 09:47:01;;;;;;;20.10;17.70;;;18.40;99.90;;;;;;5069198;28;20435;-35
2022/06/09 09:49:34;;;;;;;23.17;19.13;;;18.50;99.90;;;;;;5069464;28;20188;-35
2022/06/09 09:52:00;;;;;;;20.80;18.70;;;18.40;99.90;;;;;;5069824;28;20529;-35
2022/06/09 09:54:35;;;;;;;22.17;20.07;;;18.40;99.90;;;;;;5068427;28;20445;-35
2022/06/09 09:57:27;;;;;;;23.43;20.53;;;18.40;99.90;;;;;;5068917;28;20442;-35
2022/06/09 09:59:56;;;;;;;19.87;18.00;;;18.40;99.90;;;;;;5069919;28;20441;-36
2022/06/09 10:08:40;;;;;;;21.30;19.30;;;18.90;99.90;;;;;;5069080;28;20423;-36
2022/06/09 10:14:27;;;;;;;19.97;17.87;;;19.10;99.90;;;;;;5069369;28;20427;-35
2022/06/09 10:16:55;;;;;;;18.87;17.00;;;19.40;99.90;;;;;;5072633;28;20476;-36
2022/06/09 10:19:26;;;;;;;19.77;16.83;;;19.60;99.90;;;;;;5073634;28;20415;-36
2022/06/09 10:21:58;;;;;;;18.17;15.70;;;19.50;99.90;;;;;;5060789;28;20473;-35
2022/06/09 10:25:08;;;;;;;17.30;15.40;;;19.40;99.90;;;;;;5073395;28;20415;-35
2022/06/09 10:27:38;;;;;;;16.40;14.13;;;19.20;99.90;;;;;;5072841;28;20981;-36
2022/06/09 10:30:13;;;;;;;16.50;14.80;;;19.00;99.90;;;;;;5073409;28;20446;-35
2022/06/09 10:32:58;;;;;;;18.73;14.67;;;19.00;99.90;;;;;;5072998;28;20543;-35
2022/06/09 10:35:55;;;;;;;17.20;15.40;;;18.90;99.90;;;;;;5073457;28;20415;-35
2022/06/09 10:38:25;;;;;;;16.53;14.87;;;19.00;99.90;;;;;;5072580;28;20420;-35
2022/06/09 10:41:00;;;;;;;14.83;13.40;;;19.10;99.90;;;;;;5072990;28;20929;-35
2022/06/09 10:43:58;;;;;;;15.57;14.17;;;19.00;99.90;;;;;;5072833;28;20419;-35
2022/06/09 10:46:26;;;;;;;16.93;15.30;;;19.00;99.90;;;;;;5072519;28;20448;-35
2022/06/09 10:55:33;;;;;;;14.17;12.80;;;18.80;99.90;;;;;;5071401;28;20440;-36
2022/06/09 10:58:21;;;;;;;13.23;11.90;;;18.60;99.90;;;;;;5072035;28;20434;-35
2022/06/09 11:00:51;;;;;;;15.07;11.13;;;18.50;99.90;;;;;;5071582;28;20468;-35
2022/06/09 11:03:35;;;;;;;13.83;11.03;;;18.50;99.90;;;;;;5072713;28;20954;-35
2022/06/09 11:06:25;;;;;;;10.83;9.83;;;18.50;99.90;;;;;;5072436;28;20468;-35
2022/06/09 11:09:05;;;;;;;9.17;8.30;;;18.50;99.90;;;;;;5071908;28;20518;-35
2022/06/09 11:11:41;;;;;;;8.50;7.70;;;18.50;99.90;;;;;;5060985;28;21018;-35
2022/06/09 11:14:33;;;;;;;9.70;8.37;;;18.70;99.90;;;;;;5071975;28;20514;-35
2022/06/09 11:17:23;;;;;;;8.43;7.63;;;18.80;99.90;;;;;;5063117;28;20514;-35
2022/06/09 11:20:06;;;;;;;9.33;8.53;;;19.10;99.90;;;;;;5063228;28;20428;-35
2022/06/09 11:22:32;;;;;;;9.53;8.73;;;19.30;99.90;;;;;;5045403;28;20897;-36
2022/06/09 11:25:44;;;;;;;10.67;8.33;;;19.60;99.90;;;;;;5054265;28;20444;-36
2022/06/09 11:28:25;;;;;;;8.67;7.87;;;19.70;99.90;;;;;;5027489;28;20241;-35
2022/06/09 11:31:18;;;;;;;9.43;8.07;;;19.50;99.90;;;;;;5061792;28;20414;-35
2022/06/09 11:34:18;;;;;;;9.13;6.77;;;19.50;99.90;;;;;;5072098;28;20453;-36
2022/06/09 11:37:12;;;;;;;6.10;5.60;;;19.30;99.90;;;;;;5071444;28;20769;-35
2022/06/09 11:40:07;;;;;;;7.30;5.57;;;19.40;99.90;;;;;;5064026;28;20450;-35
2022/06/09 11:42:45;;;;;;;6.97;4.50;;;19.60;99.90;;;;;;5070417;28;20427;-36
2022/06/09 11:45:52;;;;;;;7.93;5.00;;;19.70;99.90;;;;;;5071790;28;20458;-35
2022/06/09 11:48:42;;;;;;;5.17;3.60;;;19.60;99.90;;;;;;5071418;28;20518;-35
2022/06/09 11:51:08;;;;;;;3.97;3.20;;;19.60;99.90;;;;;;5066431;28;20458;-36
2022/06/09 11:53:47;;;;;;;4.20;3.00;;;19.50;99.90;;;;;;5070416;28;20420;-35
2022/06/09 11:56:45;;;;;;;2.67;2.47;;;19.70;99.90;;;;;;5071601;28;20867;-35
2022/06/09 11:59:15;;;;;;;3.47;3.17;;;20.00;99.90;;;;;;5071464;28;20450;-35
2022/06/09 12:01:49;;;;;;;4.87;3.17;;;20.20;99.90;;;;;;5071670;28;20426;-36
2022/06/09 12:04:43;;;;;;;4.70;3.50;;;20.30;99.90;;;;;;5071070;28;20431;-35
2022/06/09 12:07:38;;;;;;;3.70;3.40;;;20.50;99.90;;;;;;5070772;28;20423;-36
2022/06/09 12:10:33;;;;;;;5.00;4.50;;;20.50;99.90;;;;;;5071200;28;20981;-35
2022/06/09 12:13:15;;;;;;;5.33;4.23;;;20.10;99.90;;;;;;5056874;28;20468;-35
2022/06/09 12:15:50;;;;;;;5.60;5.00;;;20.00;99.90;;;;;;5060699;28;20442;-35
2022/06/09 12:18:17;;;;;;;9.53;6.87;;;20.00;99.90;;;;;;5069285;28;21009;-36
2022/06/09 12:20:49;;;;;;;7.90;5.67;;;19.90;99.90;;;;;;5064851;28;20965;-36
2022/06/09 12:23:36;;;;;;;5.13;2.77;;;19.60;99.90;;;;;;5061961;28;21196;-35
2022/06/09 12:26:16;;;;;;;2.73;1.50;;;19.40;99.90;;;;;;5054560;28;20501;-36
2022/06/09 12:28:53;;;;;;;1.50;1.40;;;19.10;99.90;;;;;;5056719;28;20431;-35
2022/06/09 12:31:30;;;;;;;1.50;1.40;;;18.80;99.90;;;;;;5070356;28;20481;-35
2022/06/09 12:34:11;;;;;;;4.13;2.10;;;18.40;99.90;;;;;;5071114;28;20449;-35
2022/06/09 12:36:52;;;;;;;2.47;2.10;;;18.20;99.90;;;;;;5070392;28;20418;-35
2022/06/09 12:39:21;;;;;;;2.70;2.50;;;17.90;99.90;;;;;;5070227;28;20538;-36
2022/06/09 12:42:23;;;;;;;3.60;3.00;;;17.60;99.90;;;;;;5069435;28;20427;-35
2022/06/09 12:44:59;;;;;;;5.40;2.40;;;17.10;99.90;;;;;;5066571;28;20426;-36
2022/06/09 12:47:25;;;;;;;2.73;2.10;;;16.70;99.90;;;;;;5070151;28;20973;-35
2022/06/09 12:49:55;;;;;;;2.90;2.10;;;16.50;99.90;;;;;;5070557;28;20432;-35
2022/06/09 12:52:43;;;;;;;3.27;2.30;;;16.30;99.90;;;;;;5070304;28;20489;-35
2022/06/09 12:55:14;;;;;;;4.67;2.40;;;16.20;99.90;;;;;;5069047;28;20426;-35
2022/06/09 12:57:47;;;;;;;3.70;2.07;;;16.20;99.90;;;;;;5069890;28;20415;-35
2022/06/09 13:00:21;;;;;;;2.80;2.30;;;16.20;99.90;;;;;;5070561;28;20434;-35
2022/06/09 13:02:49;;;;;;;3.37;2.27;;;16.20;99.90;;;;;;5070229;28;20548;-35
2022/06/09 13:05:34;;;;;;;2.43;2.20;;;16.40;99.90;;;;;;5070527;28;20423;-36
2022/06/09 13:08:25;;;;;;;3.93;2.40;;;16.50;99.90;;;;;;5069689;28;20434;-35
2022/06/09 13:14:10;;;;;;;2.63;2.43;;;16.60;99.90;;;;;;5056705;28;20428;-35
2022/06/09 13:16:40;;;;;;;5.17;2.70;;;16.70;99.90;;;;;;5069813;28;20439;-35
2022/06/09 13:19:06;;;;;;;3.00;2.70;;;16.70;99.90;;;;;;5069875;28;20431;-36
2022/06/09 13:21:37;;;;;;;3.53;2.50;;;16.70;99.90;;;;;;5057679;28;20964;-35
2022/06/09 13:24:12;;;;;;;3.70;2.87;;;16.60;99.90;;;;;;5070051;28;20439;-35
2022/06/09 13:26:44;;;;;;;3.57;2.83;;;16.60;99.90;;;;;;5069761;28;20437;-36
2022/06/09 13:29:21;;;;;;;2.97;2.77;;;16.60;99.90;;;;;;5068653;28;21085;-35